Time;durP1;ratioP1;P1;durP2;ratioP2;P2;SDS_P1;SDS_P2;PMS_P1;PMS_P2;Temp;Humidity;BMP_temperature;BMP_pressure;BME280_temperature;BME280_humidity;BME280_pressure;Samples;Min_cycle;Max_cycle;Signal;HPM_P1;HPM_P2
2022/10/17 00:01:00;;;;;;;1999.90;999.90;;;13.00;99.90;;;;;;5057453;28;20455;-68
2022/10/17 00:03:26;;;;;;;1999.90;999.90;;;13.00;99.90;;;;;;5061766;28;20452;-69
2022/10/17 00:05:53;;;;;;;1999.90;999.90;;;12.90;99.90;;;;;;5062896;28;20443;-67
2022/10/17 00:08:20;;;;;;;1999.90;999.90;;;12.90;99.90;;;;;;5061928;28;20443;-67
2022/10/17 00:10:56;;;;;;;1999.90;999.90;;;12.90;99.90;;;;;;5061236;28;20456;-69
2022/10/17 00:13:23;;;;;;;1999.90;999.90;;;12.80;99.90;;;;;;5052725;28;20455;-68
2022/10/17 00:15:51;;;;;;;1999.90;999.90;;;12.80;99.90;;;;;;5045205;28;20436;-66
2022/10/17 00:18:18;;;;;;;1999.90;999.90;;;12.80;99.90;;;;;;5043204;28;20954;-68
2022/10/17 00:20:45;;;;;;;1999.90;999.90;;;12.80;99.90;;;;;;5052946;28;20816;-70
2022/10/17 00:23:12;;;;;;;1999.90;999.90;;;12.80;99.90;;;;;;5063780;28;20490;-67
2022/10/17 00:25:39;;;;;;;1999.90;999.90;;;12.80;99.90;;;;;;5059037;28;20821;-68
2022/10/17 00:28:06;;;;;;;1999.90;999.90;;;12.80;99.90;;;;;;5061805;28;20466;-68
2022/10/17 00:30:33;;;;;;;1999.90;999.90;;;12.80;99.90;;;;;;5072223;28;20439;-69
2022/10/17 00:33:01;;;;;;;1999.90;999.90;;;12.80;99.90;;;;;;5071339;28;20837;-70
2022/10/17 00:35:27;;;;;;;1999.90;999.90;;;12.80;99.90;;;;;;5071736;28;20447;-70
2022/10/17 00:37:54;;;;;;;1999.90;999.90;;;12.90;99.90;;;;;;5075262;28;20463;-69
2022/10/17 00:40:21;;;;;;;1999.90;999.90;;;13.00;99.90;;;;;;5075201;28;20747;-72
2022/10/17 00:42:50;;;;;;;1999.90;999.90;;;13.00;99.90;;;;;;5072375;28;20474;-70
2022/10/17 00:45:21;;;;;;;1999.90;999.90;;;13.00;99.90;;;;;;5074365;28;20964;-69
2022/10/17 00:47:53;;;;;;;1999.90;999.90;;;12.90;99.90;;;;;;5075853;28;20463;-70
2022/10/17 00:50:23;;;;;;;1999.90;999.90;;;12.90;99.90;;;;;;5074991;28;20435;-70
2022/10/17 00:52:51;;;;;;;1999.90;999.90;;;12.80;99.90;;;;;;5074113;28;20443;-70
2022/10/17 00:55:21;;;;;;;1999.90;999.90;;;12.80;99.90;;;;;;5074128;28;20447;-70
2022/10/17 00:57:49;;;;;;;1999.90;999.90;;;12.80;99.90;;;;;;5074192;28;20478;-69
2022/10/17 01:00:17;;;;;;;1999.90;999.90;;;12.80;99.90;;;;;;5073911;28;20455;-70
2022/10/17 01:02:44;;;;;;;1999.90;999.90;;;12.90;99.90;;;;;;5073166;28;20474;-70
2022/10/17 01:05:12;;;;;;;1999.90;999.90;;;12.90;99.90;;;;;;5074298;28;20458;-69
2022/10/17 01:07:42;;;;;;;1999.90;999.90;;;13.00;99.90;;;;;;5073984;28;20467;-70
2022/10/17 01:10:10;;;;;;;1999.90;999.90;;;13.10;99.90;;;;;;5073611;28;20447;-70
2022/10/17 01:12:56;;;;;;;1999.90;999.90;;;13.00;99.90;;;;;;5072998;28;20454;-71
2022/10/17 01:15:36;;;;;;;1999.90;999.90;;;13.00;99.90;;;;;;5073191;28;20439;-70
2022/10/17 01:18:13;;;;;;;1999.90;999.90;;;13.00;99.90;;;;;;5073712;28;21151;-70
2022/10/17 01:21:10;;;;;;;1999.90;999.90;;;13.00;99.90;;;;;;5073334;28;20862;-71
2022/10/17 01:23:55;;;;;;;1999.90;999.90;;;13.00;99.90;;;;;;5073071;28;20462;-69
2022/10/17 01:26:32;;;;;;;1999.90;999.90;;;13.00;99.90;;;;;;5073520;28;20991;-69
2022/10/17 01:29:33;;;;;;;1999.90;999.90;;;13.00;99.90;;;;;;5074017;28;20442;-70
2022/10/17 01:32:04;;;;;;;1999.90;999.90;;;12.90;99.90;;;;;;5072152;28;20447;-70
2022/10/17 01:34:34;;;;;;;1999.90;999.90;;;13.00;99.90;;;;;;5073188;28;20462;-70
2022/10/17 01:37:06;;;;;;;1999.90;999.90;;;13.00;99.90;;;;;;5073217;28;20547;-70
2022/10/17 01:39:46;;;;;;;1999.90;999.90;;;12.90;99.90;;;;;;5072852;28;21127;-70
2022/10/17 01:42:17;;;;;;;1999.90;999.90;;;12.90;99.90;;;;;;5071703;28;21011;-68
2022/10/17 01:44:49;;;;;;;1999.90;999.90;;;12.90;99.90;;;;;;5074126;28;20447;-69
2022/10/17 01:47:20;;;;;;;1999.90;999.90;;;12.90;99.90;;;;;;5073154;28;21030;-70
2022/10/17 01:49:50;;;;;;;1999.90;999.90;;;12.80;99.90;;;;;;5076337;28;20458;-71
2022/10/17 01:52:22;;;;;;;1999.90;999.90;;;12.70;99.90;;;;;;5079341;28;20447;-71
2022/10/17 01:54:52;;;;;;;1999.90;999.90;;;12.60;99.90;;;;;;5076225;28;20458;-71
2022/10/17 01:57:25;;;;;;;1999.90;999.90;;;12.60;99.90;;;;;;5074900;28;20982;-71
2022/10/17 01:59:54;;;;;;;1999.90;999.90;;;12.50;99.90;;;;;;5074644;28;20961;-70
2022/10/17 02:02:24;;;;;;;1999.90;999.90;;;12.50;99.90;;;;;;5073554;28;20494;-72
2022/10/17 02:04:51;;;;;;;1999.90;999.90;;;12.50;99.90;;;;;;5073794;28;20435;-70
2022/10/17 02:07:18;;;;;;;1999.90;999.90;;;12.40;99.90;;;;;;5073605;28;20459;-69
2022/10/17 02:09:45;;;;;;;1999.90;999.90;;;12.40;99.90;;;;;;5073916;28;20462;-70
2022/10/17 02:12:41;;;;;;;1999.90;999.90;;;12.40;99.90;;;;;;5072354;28;20819;-70
2022/10/17 02:15:20;;;;;;;1999.90;999.90;;;12.30;99.90;;;;;;5067073;28;20451;-71
2022/10/17 02:17:57;;;;;;;1999.90;999.90;;;12.30;99.90;;;;;;5073973;28;20482;-69
2022/10/17 02:20:29;;;;;;;1999.90;999.90;;;12.30;99.90;;;;;;5073600;28;20439;-71
2022/10/17 02:22:58;;;;;;;1999.90;999.90;;;12.30;99.90;;;;;;5073111;28;20481;-69
2022/10/17 02:25:34;;;;;;;1999.90;999.90;;;12.20;99.90;;;;;;5072688;28;20443;-70
2022/10/17 02:28:09;;;;;;;1999.90;999.90;;;12.30;99.90;;;;;;5072580;28;20471;-70
2022/10/17 02:30:40;;;;;;;1999.90;999.90;;;12.20;99.90;;;;;;5072260;28;20831;-69
2022/10/17 02:33:12;;;;;;;1999.90;999.90;;;12.30;99.90;;;;;;5072543;28;20473;-71
2022/10/17 02:35:43;;;;;;;1999.90;999.90;;;12.30;99.90;;;;;;5072017;28;20466;-70
2022/10/17 02:38:11;;;;;;;1999.90;999.90;;;12.30;99.90;;;;;;5072669;28;20537;-70
2022/10/17 02:40:40;;;;;;;1999.90;999.90;;;12.30;99.90;;;;;;5072204;28;20450;-70
2022/10/17 02:43:08;;;;;;;1999.90;999.90;;;12.20;99.90;;;;;;5071885;28;20485;-70
2022/10/17 02:45:37;;;;;;;1999.90;999.90;;;12.20;99.90;;;;;;5072537;28;20963;-70
2022/10/17 02:48:06;;;;;;;1999.90;999.90;;;12.10;99.90;;;;;;5072068;28;20459;-70
2022/10/17 02:50:44;;;;;;;1999.90;999.90;;;12.10;99.90;;;;;;5071862;28;20447;-71
2022/10/17 02:53:15;;;;;;;1999.90;999.90;;;12.00;99.90;;;;;;5072017;28;20435;-71
2022/10/17 02:55:50;;;;;;;1999.90;999.90;;;12.00;99.90;;;;;;5072818;28;20504;-70
2022/10/17 02:58:21;;;;;;;1999.90;999.90;;;12.00;99.90;;;;;;5072694;28;20454;-70
2022/10/17 03:00:49;;;;;;;1999.90;999.90;;;11.90;99.90;;;;;;5072555;28;20446;-70
2022/10/17 03:03:21;;;;;;;1999.90;999.90;;;12.00;99.90;;;;;;5071836;28;21035;-71
2022/10/17 03:05:49;;;;;;;1999.90;999.90;;;12.00;99.90;;;;;;5071902;28;20927;-70
2022/10/17 03:08:16;;;;;;;1999.90;999.90;;;11.90;99.90;;;;;;5071966;28;20462;-70
2022/10/17 03:10:42;;;;;;;1999.90;999.90;;;11.90;99.90;;;;;;5071811;28;20443;-70
2022/10/17 03:13:09;;;;;;;1999.90;999.90;;;11.90;99.90;;;;;;5071939;28;20462;-70
2022/10/17 03:15:36;;;;;;;1999.90;999.90;;;12.00;99.90;;;;;;5071490;28;20642;-70
2022/10/17 03:18:03;;;;;;;1999.90;999.90;;;11.90;99.90;;;;;;5072335;28;20977;-70
2022/10/17 03:20:30;;;;;;;1999.90;999.90;;;11.80;99.90;;;;;;5071884;28;20451;-70
2022/10/17 03:22:58;;;;;;;1999.90;999.90;;;11.80;99.90;;;;;;5070943;28;20505;-69
2022/10/17 03:25:25;;;;;;;1999.90;999.90;;;11.80;99.90;;;;;;5071745;28;20457;-70
2022/10/17 03:27:52;;;;;;;1999.90;999.90;;;11.90;99.90;;;;;;5071528;28;20976;-70
2022/10/17 03:30:19;;;;;;;1999.90;999.90;;;11.90;99.90;;;;;;5071349;28;20443;-71
2022/10/17 03:32:46;;;;;;;1999.90;999.90;;;11.80;99.90;;;;;;5070505;28;20443;-70
2022/10/17 03:35:13;;;;;;;1999.90;999.90;;;11.80;99.90;;;;;;5070567;28;20462;-70
2022/10/17 03:37:41;;;;;;;1999.90;999.90;;;11.80;99.90;;;;;;5071468;28;20992;-70
2022/10/17 03:40:10;;;;;;;1999.90;999.90;;;11.80;99.90;;;;;;5071545;28;20451;-70
2022/10/17 03:42:36;;;;;;;1999.90;999.90;;;11.80;99.90;;;;;;5069780;28;20882;-70
2022/10/17 03:45:04;;;;;;;1999.90;999.90;;;11.80;99.90;;;;;;5070834;28;20451;-70
2022/10/17 03:47:30;;;;;;;1999.90;999.90;;;11.80;99.90;;;;;;5070607;28;20471;-70
2022/10/17 03:49:57;;;;;;;1999.90;999.90;;;11.80;99.90;;;;;;5072017;28;20458;-69
2022/10/17 03:52:24;;;;;;;1999.90;999.90;;;11.70;99.90;;;;;;5071765;28;20859;-71
2022/10/17 03:54:51;;;;;;;1999.90;999.90;;;11.80;99.90;;;;;;5071320;28;20443;-69
2022/10/17 03:57:19;;;;;;;1999.90;999.90;;;11.70;99.90;;;;;;5071650;28;20478;-69
2022/10/17 03:59:46;;;;;;;1999.90;999.90;;;11.70;99.90;;;;;;5072230;28;20447;-70
2022/10/17 04:02:13;;;;;;;1999.90;999.90;;;11.70;99.90;;;;;;5071067;28;20439;-70
2022/10/17 04:04:39;;;;;;;1999.90;999.90;;;11.80;99.90;;;;;;5072130;28;20833;-70
2022/10/17 04:07:06;;;;;;;1999.90;999.90;;;11.80;99.90;;;;;;5072096;28;21150;-70
2022/10/17 04:09:33;;;;;;;1999.90;999.90;;;11.90;99.90;;;;;;5072403;28;20435;-69
2022/10/17 04:12:00;;;;;;;1999.90;999.90;;;11.90;99.90;;;;;;5073512;28;20461;-69
2022/10/17 04:14:28;;;;;;;1999.90;999.90;;;11.80;99.90;;;;;;5075343;28;20458;-71
2022/10/17 04:16:55;;;;;;;1999.90;999.90;;;11.70;99.90;;;;;;5076073;28;20458;-70
2022/10/17 04:19:21;;;;;;;1999.90;999.90;;;11.70;99.90;;;;;;5075787;28;20447;-69
2022/10/17 04:21:48;;;;;;;1999.90;999.90;;;11.70;99.90;;;;;;5075383;28;20454;-69
2022/10/17 04:24:15;;;;;;;1999.90;999.90;;;11.70;99.90;;;;;;5076179;28;20489;-71
2022/10/17 04:26:42;;;;;;;1999.90;999.90;;;11.70;99.90;;;;;;5076079;28;20471;-70
2022/10/17 04:29:09;;;;;;;1999.90;999.90;;;11.70;99.90;;;;;;5075567;28;20806;-69
2022/10/17 04:31:37;;;;;;;1999.90;999.90;;;11.80;99.90;;;;;;5075040;28;20516;-70
2022/10/17 04:34:04;;;;;;;1999.90;999.90;;;11.80;99.90;;;;;;5074279;28;20439;-70
2022/10/17 04:36:30;;;;;;;1999.90;999.90;;;11.80;99.90;;;;;;5074185;28;20463;-72
2022/10/17 04:38:57;;;;;;;1999.90;999.90;;;11.80;99.90;;;;;;5071704;28;21128;-71
2022/10/17 04:41:24;;;;;;;1999.90;999.90;;;11.80;99.90;;;;;;5071988;28;20537;-68
2022/10/17 04:43:51;;;;;;;1999.90;999.90;;;11.90;99.90;;;;;;5074096;28;20474;-71
2022/10/17 04:46:18;;;;;;;1999.90;999.90;;;11.90;99.90;;;;;;5073141;28;20455;-72
2022/10/17 04:48:46;;;;;;;1999.90;999.90;;;11.90;99.90;;;;;;5073212;28;20775;-69
2022/10/17 04:51:15;;;;;;;1999.90;999.90;;;12.00;99.90;;;;;;5072680;28;20435;-70
2022/10/17 04:53:42;;;;;;;1999.90;999.90;;;12.00;99.90;;;;;;5072523;28;20435;-70
2022/10/17 04:56:11;;;;;;;1999.90;999.90;;;12.00;99.90;;;;;;5062283;28;20447;-68
2022/10/17 04:58:39;;;;;;;1999.90;999.90;;;12.00;99.90;;;;;;5052922;28;20821;-70
2022/10/17 05:01:07;;;;;;;1999.90;999.90;;;11.90;99.90;;;;;;5064264;28;20953;-67
2022/10/17 05:03:34;;;;;;;1999.90;999.90;;;11.90;99.90;;;;;;5051701;28;20491;-66
2022/10/17 05:06:06;;;;;;;1999.90;999.90;;;11.90;99.90;;;;;;5051058;28;20447;-68
2022/10/17 05:08:32;;;;;;;1999.90;999.90;;;11.80;99.90;;;;;;5052641;28;20452;-68
2022/10/17 05:10:59;;;;;;;1999.90;999.90;;;11.80;99.90;;;;;;5061230;28;20458;-70
2022/10/17 05:13:26;;;;;;;1999.90;999.90;;;11.80;99.90;;;;;;5064908;28;21154;-69
2022/10/17 05:15:53;;;;;;;1999.90;999.90;;;11.80;99.90;;;;;;5067858;28;20458;-69
2022/10/17 05:18:20;;;;;;;1999.90;999.90;;;11.90;99.90;;;;;;5069943;28;20450;-69
2022/10/17 05:20:47;;;;;;;1999.90;999.90;;;12.00;99.90;;;;;;5070259;28;20447;-71
2022/10/17 05:23:15;;;;;;;1999.90;999.90;;;12.10;99.90;;;;;;5059871;28;20482;-69
2022/10/17 05:25:41;;;;;;;1999.90;999.90;;;12.20;99.90;;;;;;5065749;28;20447;-69
2022/10/17 05:28:08;;;;;;;1999.90;999.90;;;12.20;99.90;;;;;;5071341;28;20486;-69
2022/10/17 05:30:36;;;;;;;1999.90;999.90;;;12.20;99.90;;;;;;5070590;28;20444;-69
2022/10/17 05:33:03;;;;;;;1999.90;999.90;;;12.20;99.90;;;;;;5070578;28;20481;-69
2022/10/17 05:35:29;;;;;;;1999.90;999.90;;;12.20;99.90;;;;;;5070717;28;20455;-69
2022/10/17 05:37:57;;;;;;;1999.90;999.90;;;12.20;99.90;;;;;;5071263;28;20459;-70
2022/10/17 05:40:26;;;;;;;1999.90;999.90;;;12.10;99.90;;;;;;5071587;28;20443;-71
2022/10/17 05:42:52;;;;;;;1999.90;999.90;;;12.00;99.90;;;;;;5070191;28;20481;-70
2022/10/17 05:45:19;;;;;;;1999.90;999.90;;;11.90;99.90;;;;;;5071079;28;20451;-70
2022/10/17 05:47:46;;;;;;;1999.90;999.90;;;11.90;99.90;;;;;;5070207;28;20850;-69
2022/10/17 05:50:13;;;;;;;1999.90;999.90;;;11.90;99.90;;;;;;5070793;28;20826;-71
2022/10/17 05:52:39;;;;;;;1999.90;999.90;;;12.00;99.90;;;;;;5071108;28;20929;-71
2022/10/17 05:55:08;;;;;;;1999.90;999.90;;;12.00;99.90;;;;;;5072900;28;20455;-71
2022/10/17 05:57:36;;;;;;;1999.90;999.90;;;11.90;99.90;;;;;;5073799;28;20459;-71
2022/10/17 06:00:04;;;;;;;1999.90;999.90;;;11.90;99.90;;;;;;5074271;28;20443;-70
2022/10/17 06:02:31;;;;;;;1999.90;999.90;;;11.90;99.90;;;;;;5072328;28;20443;-71
2022/10/17 06:04:58;;;;;;;1999.90;999.90;;;11.90;99.90;;;;;;5072908;28;20478;-72
2022/10/17 06:07:25;;;;;;;1999.90;999.90;;;12.00;99.90;;;;;;5074641;28;20469;-69
2022/10/17 06:09:51;;;;;;;1999.90;999.90;;;12.00;99.90;;;;;;5073392;28;20972;-72
2022/10/17 06:12:18;;;;;;;1999.90;999.90;;;12.00;99.90;;;;;;5071222;28;20455;-69
2022/10/17 06:14:46;;;;;;;1999.90;999.90;;;12.00;99.90;;;;;;5071709;28;20439;-69
2022/10/17 06:17:13;;;;;;;1999.90;999.90;;;12.00;99.90;;;;;;5071622;28;20462;-68
2022/10/17 06:19:40;;;;;;;1999.90;999.90;;;12.00;99.90;;;;;;5070944;28;20451;-70
2022/10/17 06:22:07;;;;;;;1999.90;999.90;;;12.00;99.90;;;;;;5070137;28;20504;-69
2022/10/17 06:24:34;;;;;;;1999.90;999.90;;;12.10;99.90;;;;;;5070266;28;20485;-70
2022/10/17 06:27:01;;;;;;;1999.90;999.90;;;12.00;99.90;;;;;;5071617;28;20482;-71
2022/10/17 06:29:28;;;;;;;1999.90;999.90;;;12.10;99.90;;;;;;5071591;28;20447;-71
2022/10/17 06:31:56;;;;;;;1999.90;999.90;;;12.10;99.90;;;;;;5071205;28;20453;-71
2022/10/17 06:34:23;;;;;;;1999.90;999.90;;;12.10;99.90;;;;;;5070881;28;20455;-71
2022/10/17 06:36:49;;;;;;;1999.90;999.90;;;12.10;99.90;;;;;;5071809;28;20470;-71
2022/10/17 06:39:16;;;;;;;1999.90;999.90;;;12.10;99.90;;;;;;5072114;28;20909;-70
2022/10/17 06:41:43;;;;;;;1999.90;999.90;;;12.20;99.90;;;;;;5070946;28;20447;-71
2022/10/17 06:44:10;;;;;;;1999.90;999.90;;;12.20;99.90;;;;;;5072118;28;20474;-71
2022/10/17 06:46:38;;;;;;;1999.90;999.90;;;12.20;99.90;;;;;;5070238;28;20467;-72
2022/10/17 06:49:06;;;;;;;1999.90;999.90;;;12.30;99.90;;;;;;5071775;28;20810;-70
2022/10/17 06:51:36;;;;;;;1999.90;999.90;;;12.30;99.90;;;;;;5071382;28;20440;-72
2022/10/17 06:54:03;;;;;;;1999.90;999.90;;;12.30;99.90;;;;;;5071188;28;20500;-71
2022/10/17 06:56:30;;;;;;;1999.90;999.90;;;12.40;99.90;;;;;;5070932;28;20466;-71
2022/10/17 06:58:56;;;;;;;1999.90;999.90;;;12.50;99.90;;;;;;5071714;28;20450;-71
2022/10/17 07:01:23;;;;;;;1999.90;999.90;;;12.60;99.90;;;;;;5070918;28;20439;-71
2022/10/17 07:03:51;;;;;;;1999.90;999.90;;;12.70;99.90;;;;;;5070791;28;20500;-71
2022/10/17 07:06:19;;;;;;;1999.90;999.90;;;12.70;99.90;;;;;;5070922;28;20475;-71
2022/10/17 07:08:47;;;;;;;1999.90;999.90;;;12.80;99.90;;;;;;5071487;28;20450;-71
2022/10/17 07:11:15;;;;;;;1999.90;999.90;;;13.00;99.90;;;;;;5070648;28;20461;-71
2022/10/17 07:13:42;;;;;;;1999.90;999.90;;;13.10;99.90;;;;;;5070124;28;20949;-71
2022/10/17 07:16:10;;;;;;;1999.90;999.90;;;13.20;99.90;;;;;;5070316;28;20968;-70
2022/10/17 07:18:37;;;;;;;1999.90;999.90;;;13.20;99.90;;;;;;5070941;28;20442;-71
2022/10/17 07:21:04;;;;;;;1999.90;999.90;;;13.30;99.90;;;;;;5069455;28;20889;-70
2022/10/17 07:23:35;;;;;;;1999.90;999.90;;;13.40;99.90;;;;;;5070135;28;20479;-71
2022/10/17 07:26:05;;;;;;;1999.90;999.90;;;13.50;99.90;;;;;;5069683;28;20451;-71
2022/10/17 07:28:32;;;;;;;1999.90;999.90;;;13.60;99.90;;;;;;5070823;28;20458;-71
2022/10/17 07:31:03;;;;;;;1999.90;999.90;;;13.70;99.90;;;;;;5069925;28;20446;-70
2022/10/17 07:33:30;;;;;;;1999.90;999.90;;;13.80;99.90;;;;;;5069708;28;20439;-71
2022/10/17 07:35:58;;;;;;;1999.90;999.90;;;13.80;99.90;;;;;;5069476;28;20458;-70
2022/10/17 07:38:25;;;;;;;1999.90;999.90;;;14.00;99.90;;;;;;5069877;28;20839;-69
2022/10/17 07:40:57;;;;;;;1999.90;999.90;;;14.10;99.90;;;;;;5069390;28;20486;-69
2022/10/17 07:43:25;;;;;;;1999.90;999.90;;;14.20;99.90;;;;;;5069161;28;20964;-71
2022/10/17 07:45:52;;;;;;;1999.90;999.90;;;14.40;99.90;;;;;;5071969;28;20450;-70
2022/10/17 07:48:21;;;;;;;1999.90;999.90;;;14.40;99.90;;;;;;5074099;28;20628;-70
2022/10/17 07:50:48;;;;;;;1999.90;999.90;;;14.50;99.90;;;;;;5073341;28;20463;-71
2022/10/17 07:53:14;;;;;;;1999.90;999.90;;;14.70;99.90;;;;;;5073331;28;20459;-70
2022/10/17 07:55:43;;;;;;;1999.90;999.90;;;14.70;99.90;;;;;;5073949;28;20438;-70
2022/10/17 07:58:12;;;;;;;1999.90;999.90;;;14.90;99.90;;;;;;5073846;28;20466;-70
2022/10/17 08:00:39;;;;;;;1999.90;999.90;;;15.00;99.90;;;;;;5073265;28;20817;-68
2022/10/17 08:03:06;;;;;;;1999.90;999.90;;;15.10;99.90;;;;;;5073315;28;20466;-70
2022/10/17 08:05:34;;;;;;;1999.90;999.90;;;15.30;99.90;;;;;;5073513;28;20485;-71
2022/10/17 08:08:01;;;;;;;1999.90;999.90;;;15.40;99.90;;;;;;5073738;28;20475;-70
2022/10/17 08:10:28;;;;;;;1999.90;999.90;;;15.60;99.90;;;;;;5073723;28;20474;-71
2022/10/17 08:12:55;;;;;;;1999.90;999.90;;;15.70;99.90;;;;;;5072937;28;20454;-70
2022/10/17 08:15:24;;;;;;;1999.90;999.90;;;15.80;99.90;;;;;;5073167;28;20500;-70
2022/10/17 08:17:51;;;;;;;1999.90;999.90;;;16.00;99.90;;;;;;5073466;28;20469;-68
2022/10/17 08:20:18;;;;;;;1999.90;999.90;;;16.10;99.90;;;;;;5073339;28;20446;-70
2022/10/17 08:22:52;;;;;;;1999.90;999.90;;;16.20;99.90;;;;;;5072942;28;20443;-70
2022/10/17 08:25:18;;;;;;;1999.90;999.90;;;16.40;99.90;;;;;;5073015;28;20479;-69
2022/10/17 08:27:45;;;;;;;1999.90;999.90;;;16.60;99.90;;;;;;5073159;28;20463;-71
2022/10/17 08:30:12;;;;;;;1999.90;999.90;;;16.80;99.90;;;;;;5073236;28;20443;-71
2022/10/17 08:32:41;;;;;;;1999.90;999.90;;;16.90;99.90;;;;;;5072363;28;20451;-70
2022/10/17 08:35:08;;;;;;;1999.90;999.90;;;17.00;99.90;;;;;;5072468;28;21068;-71
2022/10/17 08:37:35;;;;;;;1999.90;999.90;;;17.20;99.90;;;;;;5073062;28;20462;-70
2022/10/17 08:40:02;;;;;;;1999.90;999.90;;;17.40;99.90;;;;;;5073164;28;20447;-72
2022/10/17 08:42:43;;;;;;;1999.90;999.90;;;17.50;99.90;;;;;;5072394;28;20497;-70
2022/10/17 08:45:18;;;;;;;1999.90;999.90;;;17.60;99.90;;;;;;5072808;28;20470;-71
2022/10/17 08:47:49;;;;;;;1999.90;999.90;;;17.80;99.90;;;;;;5073422;28;20466;-71
2022/10/17 08:50:36;;;;;;;1999.90;999.90;;;17.90;99.90;;;;;;5073314;28;20813;-71
2022/10/17 08:53:08;;;;;;;1999.90;999.90;;;18.00;99.90;;;;;;5072663;28;20834;-70
2022/10/17 08:55:38;;;;;;;1999.90;999.90;;;18.20;99.90;;;;;;5072549;28;20810;-69
2022/10/17 08:58:13;;;;;;;1999.90;999.90;;;18.40;99.90;;;;;;5071514;28;21003;-70
2022/10/17 09:00:46;;;;;;;1999.90;999.90;;;18.50;99.90;;;;;;5072090;28;20496;-69
2022/10/17 09:03:26;;;;;;;1999.90;999.90;;;18.60;99.90;;;;;;5072239;28;20830;-72
2022/10/17 09:06:00;;;;;;;1999.90;999.90;;;18.70;99.90;;;;;;5071993;28;21007;-69
2022/10/17 09:08:38;;;;;;;1999.90;999.90;;;18.90;99.90;;;;;;5072337;28;20443;-71
2022/10/17 09:11:15;;;;;;;1999.90;999.90;;;19.20;99.90;;;;;;5072111;28;20538;-70
2022/10/17 09:13:52;;;;;;;1999.90;999.90;;;19.50;99.90;;;;;;5072100;28;20447;-70
2022/10/17 09:16:43;;;;;;;1999.90;999.90;;;19.70;99.90;;;;;;5071806;28;20829;-70
2022/10/17 09:19:18;;;;;;;1999.90;999.90;;;20.00;99.90;;;;;;5072347;28;20435;-70
2022/10/17 09:21:49;;;;;;;1999.90;999.90;;;20.30;99.90;;;;;;5071540;28;20815;-70
2022/10/17 09:24:21;;;;;;;1999.90;999.90;;;20.60;99.90;;;;;;5071889;28;20483;-70
2022/10/17 09:26:48;;;;;;;1999.90;999.90;;;20.80;99.90;;;;;;5072244;28;20510;-71
2022/10/17 09:29:20;;;;;;;1999.90;999.90;;;20.90;99.90;;;;;;5071961;28;20450;-70
2022/10/17 09:31:53;;;;;;;1999.90;999.90;;;21.20;99.90;;;;;;5071291;28;20451;-70
2022/10/17 09:34:22;;;;;;;1999.90;999.90;;;21.40;99.90;;;;;;5071528;28;20462;-70
2022/10/17 09:36:49;;;;;;;1999.90;999.90;;;21.60;99.90;;;;;;5071881;28;20471;-70
2022/10/17 09:39:18;;;;;;;1999.90;999.90;;;21.60;99.90;;;;;;5071959;28;20446;-70
2022/10/17 09:41:51;;;;;;;1999.90;999.90;;;21.80;99.90;;;;;;5070781;28;20793;-69
2022/10/17 09:44:21;;;;;;;1999.90;999.90;;;22.00;99.90;;;;;;5071745;28;20471;-70
2022/10/17 09:47:08;;;;;;;1999.90;999.90;;;22.20;99.90;;;;;;5071638;28;20467;-70
2022/10/17 09:49:38;;;;;;;1999.90;999.90;;;22.40;99.90;;;;;;5068889;28;20847;-70
2022/10/17 09:52:08;;;;;;;1999.90;999.90;;;22.80;99.90;;;;;;5070599;28;20439;-71
2022/10/17 09:54:42;;;;;;;1999.90;999.90;;;23.10;99.90;;;;;;5071360;28;20439;-70
2022/10/17 09:57:11;;;;;;;1999.90;999.90;;;23.40;99.90;;;;;;5064783;28;20479;-70
2022/10/17 09:59:39;;;;;;;1999.90;999.90;;;23.80;99.90;;;;;;5056686;28;20458;-70
2022/10/17 10:02:18;;;;;;;1999.90;999.90;;;24.20;99.90;;;;;;5055129;28;20440;-72
2022/10/17 10:05:16;;;;;;;1999.90;999.90;;;24.20;99.90;;;;;;5046577;28;20479;-70
2022/10/17 10:08:03;;;;;;;1999.90;999.90;;;24.50;99.90;;;;;;5065526;28;20478;-69
2022/10/17 10:10:31;;;;;;;1999.90;999.90;;;24.90;99.90;;;;;;5066774;28;20976;-69
2022/10/17 10:13:06;;;;;;;1999.90;999.90;;;25.30;99.90;;;;;;5065565;28;20459;-69
2022/10/17 10:15:36;;;;;;;1999.90;999.90;;;25.60;99.90;;;;;;5066443;28;20439;-70
2022/10/17 10:18:23;;;;;;;1999.90;999.90;;;25.70;99.90;;;;;;5066600;28;20463;-69
2022/10/17 10:21:04;;;;;;;1999.90;999.90;;;25.80;99.90;;;;;;5065765;28;20443;-71
2022/10/17 10:23:31;;;;;;;1999.90;999.90;;;26.10;99.90;;;;;;5066134;28;20459;-70
2022/10/17 10:25:59;;;;;;;1999.90;999.90;;;26.00;99.90;;;;;;5065355;28;21008;-70
2022/10/17 10:28:29;;;;;;;1999.90;999.90;;;26.20;99.90;;;;;;5066419;28;20439;-70
2022/10/17 10:30:58;;;;;;;1999.90;999.90;;;26.30;99.90;;;;;;5065503;28;20466;-71
2022/10/17 10:33:28;;;;;;;1999.90;999.90;;;26.20;99.90;;;;;;5065367;28;20454;-71
2022/10/17 10:36:00;;;;;;;1999.90;999.90;;;26.30;99.90;;;;;;5065288;28;20466;-71
2022/10/17 10:38:27;;;;;;;1999.90;999.90;;;26.60;99.90;;;;;;5065827;28;20451;-71
2022/10/17 10:40:57;;;;;;;1999.90;999.90;;;27.10;99.90;;;;;;5064211;28;20443;-70
2022/10/17 10:43:32;;;;;;;1999.90;999.90;;;27.70;99.90;;;;;;5065471;28;20455;-70
2022/10/17 10:46:00;;;;;;;1999.90;999.90;;;27.80;99.90;;;;;;5065188;28;20477;-73
2022/10/17 10:48:30;;;;;;;1999.90;999.90;;;27.70;99.90;;;;;;5065636;28;20941;-70
2022/10/17 10:51:02;;;;;;;1999.90;999.90;;;28.00;99.90;;;;;;5065361;28;20881;-71
2022/10/17 10:53:36;;;;;;;1999.90;999.90;;;28.40;99.90;;;;;;5064988;28;20450;-70
2022/10/17 10:56:08;;;;;;;1999.90;999.90;;;28.50;99.90;;;;;;5064672;28;20442;-69
2022/10/17 10:58:45;;;;;;;1999.90;999.90;;;28.40;99.60;;;;;;5065302;28;20482;-72
2022/10/17 11:01:19;;;;;;;1999.90;999.90;;;28.60;99.90;;;;;;5065134;28;21301;-74
2022/10/17 11:03:57;;;;;;;1999.90;999.90;;;28.90;99.50;;;;;;5065111;28;20438;-69
2022/10/17 11:06:28;;;;;;;1999.90;999.90;;;29.10;98.80;;;;;;5064465;28;20485;-70
2022/10/17 11:09:13;;;;;;;1999.90;999.90;;;29.70;97.70;;;;;;5064973;28;20446;-70
2022/10/17 11:11:45;;;;;;;1999.90;999.90;;;30.20;98.10;;;;;;5064605;28;21181;-67
2022/10/17 11:14:18;;;;;;;1999.90;999.90;;;30.80;95.30;;;;;;5056568;28;20444;-69
2022/10/17 11:16:50;;;;;;;1999.90;999.90;;;31.30;94.80;;;;;;5050099;28;20456;-69
2022/10/17 11:19:24;;;;;;;1999.90;999.90;;;32.10;94.10;;;;;;5045170;28;20436;-69
2022/10/17 11:22:02;;;;;;;1999.90;999.90;;;32.70;93.10;;;;;;5045180;28;20450;-69
2022/10/17 11:24:34;;;;;;;1999.90;999.90;;;33.30;90.90;;;;;;5056676;28;20447;-69
2022/10/17 11:27:03;;;;;;;1999.90;999.90;;;34.00;90.00;;;;;;5065235;28;20966;-69
2022/10/17 11:29:34;;;;;;;1999.90;999.90;;;34.60;86.50;;;;;;5065300;28;20435;-69
2022/10/17 11:32:04;;;;;;;1999.90;999.90;;;34.80;81.10;;;;;;5064262;28;20780;-69
2022/10/17 11:34:35;;;;;;;1999.90;999.90;;;35.00;80.30;;;;;;5064813;28;20453;-69
2022/10/17 11:37:11;;;;;;;1999.90;999.90;;;34.80;78.50;;;;;;5065061;28;20459;-66
2022/10/17 11:39:47;;;;;;;1999.90;999.90;;;34.80;77.60;;;;;;5064972;28;20443;-66
2022/10/17 11:42:19;;;;;;;1999.90;999.90;;;35.00;76.30;;;;;;5063970;28;20443;-66
2022/10/17 11:44:45;;;;;;;1999.90;999.90;;;35.40;73.20;;;;;;5064015;28;20485;-66
2022/10/17 11:47:18;;;;;;;1999.90;999.90;;;35.10;73.30;;;;;;5065156;28;20471;-69
2022/10/17 11:49:50;;;;;;;1999.90;999.90;;;35.10;74.30;;;;;;5064054;28;20447;-69
2022/10/17 11:52:30;;;;;;;1999.90;999.90;;;35.60;72.90;;;;;;5064305;28;21059;-69
2022/10/17 11:55:09;;;;;;;1999.90;999.90;;;35.90;71.70;;;;;;5064614;28;20822;-69
2022/10/17 11:57:52;;;;;;;1999.90;999.90;;;36.20;69.30;;;;;;5065765;28;20466;-69
2022/10/17 12:00:30;;;;;;;1999.90;999.90;;;36.60;70.50;;;;;;5048324;28;20889;-68
2022/10/17 12:03:05;;;;;;;1999.90;999.90;;;36.70;67.80;;;;;;5044843;28;20447;-69
2022/10/17 12:05:37;;;;;;;1999.90;999.90;;;36.70;67.80;;;;;;5056597;28;20783;-69
2022/10/17 12:08:12;;;;;;;1999.90;999.90;;;37.20;65.00;;;;;;5062339;28;21030;-68
2022/10/17 12:10:47;;;;;;;1999.90;999.90;;;36.80;63.70;;;;;;5065224;28;20438;-68
2022/10/17 12:13:51;;;;;;;1999.90;999.90;;;35.20;67.20;;;;;;5064553;28;20445;-72